sensor_id;sensor_type;location;lat;lon;timestamp;temperature;humidity
74488;DHT22;63019;51.080;13.642;2024-01-30T00:01:01;2.40;99.90
74488;DHT22;63019;51.080;13.642;2024-01-30T00:02:04;2.40;99.90
74488;DHT22;63019;51.080;13.642;2024-01-30T00:03:06;2.40;99.90
74488;DHT22;63019;51.080;13.642;2024-01-30T00:04:08;2.40;99.90
74488;DHT22;63019;51.080;13.642;2024-01-30T00:05:11;2.40;99.90
74488;DHT22;63019;51.080;13.642;2024-01-30T00:06:13;2.40;99.90
74488;DHT22;63019;51.080;13.642;2024-01-30T00:07:17;2.40;99.90
74488;DHT22;63019;51.080;13.642;2024-01-30T00:08:20;2.40;99.90
74488;DHT22;63019;51.080;13.642;2024-01-30T00:09:22;2.40;99.90
74488;DHT22;63019;51.080;13.642;2024-01-30T00:10:25;2.30;99.90
74488;DHT22;63019;51.080;13.642;2024-01-30T00:11:27;2.30;99.90
74488;DHT22;63019;51.080;13.642;2024-01-30T00:12:31;2.30;99.90
74488;DHT22;63019;51.080;13.642;2024-01-30T00:13:33;2.40;99.90
74488;DHT22;63019;51.080;13.642;2024-01-30T00:14:37;2.30;99.90
74488;DHT22;63019;51.080;13.642;2024-01-30T00:15:39;2.30;99.90
74488;DHT22;63019;51.080;13.642;2024-01-30T00:16:42;2.30;99.90
74488;DHT22;63019;51.080;13.642;2024-01-30T00:17:44;2.30;99.90
74488;DHT22;63019;51.080;13.642;2024-01-30T00:18:47;2.30;99.90
74488;DHT22;63019;51.080;13.642;2024-01-30T00:19:49;2.30;99.90
74488;DHT22;63019;51.080;13.642;2024-01-30T00:20:53;2.30;99.90
74488;DHT22;63019;51.080;13.642;2024-01-30T00:21:56;2.30;99.90
74488;DHT22;63019;51.080;13.642;2024-01-30T00:22:58;2.30;99.90
74488;DHT22;63019;51.080;13.642;2024-01-30T00:24:01;2.30;99.90
74488;DHT22;63019;51.080;13.642;2024-01-30T00:25:03;2.30;99.90
74488;DHT22;63019;51.080;13.642;2024-01-30T00:26:07;2.30;99.90
74488;DHT22;63019;51.080;13.642;2024-01-30T00:27:09;2.30;99.90
74488;DHT22;63019;51.080;13.642;2024-01-30T00:28:12;2.30;99.90
74488;DHT22;63019;51.080;13.642;2024-01-30T00:29:14;2.30;99.90
74488;DHT22;63019;51.080;13.642;2024-01-30T00:30:21;2.30;99.90
74488;DHT22;63019;51.080;13.642;2024-01-30T00:31:24;2.30;99.90
74488;DHT22;63019;51.080;13.642;2024-01-30T00:32:26;2.20;99.90
74488;DHT22;63019;51.080;13.642;2024-01-30T00:33:28;2.20;99.90
74488;DHT22;63019;51.080;13.642;2024-01-30T00:34:31;2.20;99.90
74488;DHT22;63019;51.080;13.642;2024-01-30T00:35:34;2.20;99.90
74488;DHT22;63019;51.080;13.642;2024-01-30T00:36:37;2.20;99.90
74488;DHT22;63019;51.080;13.642;2024-01-30T00:37:39;2.20;99.90
74488;DHT22;63019;51.080;13.642;2024-01-30T00:38:42;2.20;99.90
74488;DHT22;63019;51.080;13.642;2024-01-30T00:39:44;2.20;99.90
74488;DHT22;63019;51.080;13.642;2024-01-30T00:40:46;2.20;99.90
74488;DHT22;63019;51.080;13.642;2024-01-30T00:41:49;2.20;99.90
74488;DHT22;63019;51.080;13.642;2024-01-30T00:42:51;2.20;99.90
74488;DHT22;63019;51.080;13.642;2024-01-30T00:43:54;2.20;99.90
74488;DHT22;63019;51.080;13.642;2024-01-30T00:44:56;2.20;99.90
74488;DHT22;63019;51.080;13.642;2024-01-30T00:45:59;2.20;99.90
74488;DHT22;63019;51.080;13.642;2024-01-30T00:47:03;2.20;99.90
74488;DHT22;63019;51.080;13.642;2024-01-30T00:48:05;2.20;99.90
74488;DHT22;63019;51.080;13.642;2024-01-30T00:49:08;2.20;99.90
74488;DHT22;63019;51.080;13.642;2024-01-30T00:50:12;2.20;99.90
74488;DHT22;63019;51.080;13.642;2024-01-30T00:51:14;2.20;99.90
74488;DHT22;63019;51.080;13.642;2024-01-30T00:52:17;2.20;99.90
74488;DHT22;63019;51.080;13.642;2024-01-30T00:53:19;2.20;99.90
74488;DHT22;63019;51.080;13.642;2024-01-30T00:54:24;2.10;99.90
74488;DHT22;63019;51.080;13.642;2024-01-30T00:55:27;2.10;99.90
74488;DHT22;63019;51.080;13.642;2024-01-30T00:56:29;2.10;99.90
74488;DHT22;63019;51.080;13.642;2024-01-30T00:57:34;2.10;99.90
74488;DHT22;63019;51.080;13.642;2024-01-30T00:58:36;2.10;99.90
74488;DHT22;63019;51.080;13.642;2024-01-30T00:59:38;2.10;99.90
74488;DHT22;63019;51.080;13.642;2024-01-30T01:00:41;2.10;99.90
74488;DHT22;63019;51.080;13.642;2024-01-30T01:01:43;2.10;99.90
74488;DHT22;63019;51.080;13.642;2024-01-30T01:02:46;2.10;99.90
74488;DHT22;63019;51.080;13.642;2024-01-30T01:03:48;2.10;99.90
74488;DHT22;63019;51.080;13.642;2024-01-30T01:04:51;2.10;99.90
74488;DHT22;63019;51.080;13.642;2024-01-30T01:05:54;2.20;99.90
74488;DHT22;63019;51.080;13.642;2024-01-30T01:06:56;2.20;99.90
74488;DHT22;63019;51.080;13.642;2024-01-30T01:07:59;2.20;99.90
74488;DHT22;63019;51.080;13.642;2024-01-30T01:09:01;2.20;99.90
74488;DHT22;63019;51.080;13.642;2024-01-30T01:10:06;2.20;99.90
74488;DHT22;63019;51.080;13.642;2024-01-30T01:11:08;2.20;99.90
74488;DHT22;63019;51.080;13.642;2024-01-30T01:12:12;2.10;99.90
74488;DHT22;63019;51.080;13.642;2024-01-30T01:13:15;2.10;99.90
74488;DHT22;63019;51.080;13.642;2024-01-30T01:14:17;2.10;99.90
74488;DHT22;63019;51.080;13.642;2024-01-30T01:15:20;2.20;99.90
74488;DHT22;63019;51.080;13.642;2024-01-30T01:16:22;2.20;99.90
74488;DHT22;63019;51.080;13.642;2024-01-30T01:17:25;2.10;99.90
74488;DHT22;63019;51.080;13.642;2024-01-30T01:18:27;2.10;99.90
74488;DHT22;63019;51.080;13.642;2024-01-30T01:19:29;2.20;99.90
74488;DHT22;63019;51.080;13.642;2024-01-30T01:20:32;2.10;99.90
74488;DHT22;63019;51.080;13.642;2024-01-30T01:21:35;2.10;99.90
74488;DHT22;63019;51.080;13.642;2024-01-30T01:22:37;2.20;99.90
74488;DHT22;63019;51.080;13.642;2024-01-30T01:23:40;2.10;99.90
74488;DHT22;63019;51.080;13.642;2024-01-30T01:24:43;2.10;99.90
74488;DHT22;63019;51.080;13.642;2024-01-30T01:25:46;2.10;99.90
74488;DHT22;63019;51.080;13.642;2024-01-30T01:26:48;2.20;99.90
74488;DHT22;63019;51.080;13.642;2024-01-30T01:27:50;2.10;99.90
74488;DHT22;63019;51.080;13.642;2024-01-30T01:28:56;2.20;99.90
74488;DHT22;63019;51.080;13.642;2024-01-30T01:29:58;2.10;99.90
74488;DHT22;63019;51.080;13.642;2024-01-30T01:31:00;2.10;99.90
74488;DHT22;63019;51.080;13.642;2024-01-30T01:32:07;2.10;99.90
74488;DHT22;63019;51.080;13.642;2024-01-30T01:33:10;2.10;99.90
74488;DHT22;63019;51.080;13.642;2024-01-30T01:34:13;2.10;99.90
74488;DHT22;63019;51.080;13.642;2024-01-30T01:35:15;2.10;99.90
74488;DHT22;63019;51.080;13.642;2024-01-30T01:36:18;2.10;99.90
74488;DHT22;63019;51.080;13.642;2024-01-30T01:37:20;2.10;99.90
74488;DHT22;63019;51.080;13.642;2024-01-30T01:38:24;2.10;99.90
74488;DHT22;63019;51.080;13.642;2024-01-30T01:39:26;2.10;99.90
74488;DHT22;63019;51.080;13.642;2024-01-30T01:40:29;2.10;99.90
74488;DHT22;63019;51.080;13.642;2024-01-30T01:41:32;2.10;99.90
74488;DHT22;63019;51.080;13.642;2024-01-30T01:42:34;2.10;99.90
74488;DHT22;63019;51.080;13.642;2024-01-30T01:43:37;2.10;99.90
74488;DHT22;63019;51.080;13.642;2024-01-30T01:44:43;2.10;99.90
74488;DHT22;63019;51.080;13.642;2024-01-30T01:45:45;2.10;99.90
74488;DHT22;63019;51.080;13.642;2024-01-30T01:46:48;2.10;99.90
74488;DHT22;63019;51.080;13.642;2024-01-30T01:47:51;2.10;99.90
74488;DHT22;63019;51.080;13.642;2024-01-30T01:48:55;2.10;99.90
74488;DHT22;63019;51.080;13.642;2024-01-30T01:49:57;2.10;99.90
74488;DHT22;63019;51.080;13.642;2024-01-30T01:51:00;2.10;99.90
74488;DHT22;63019;51.080;13.642;2024-01-30T01:52:05;2.10;99.90
74488;DHT22;63019;51.080;13.642;2024-01-30T01:53:10;2.10;99.90
74488;DHT22;63019;51.080;13.642;2024-01-30T01:54:14;2.10;99.90
74488;DHT22;63019;51.080;13.642;2024-01-30T01:55:17;2.10;99.90
74488;DHT22;63019;51.080;13.642;2024-01-30T01:56:21;2.10;99.90
74488;DHT22;63019;51.080;13.642;2024-01-30T01:57:23;2.10;99.90
74488;DHT22;63019;51.080;13.642;2024-01-30T01:58:28;2.10;99.90
74488;DHT22;63019;51.080;13.642;2024-01-30T01:59:31;2.10;99.90
74488;DHT22;63019;51.080;13.642;2024-01-30T02:00:34;2.10;99.90
74488;DHT22;63019;51.080;13.642;2024-01-30T02:01:37;2.10;99.90
74488;DHT22;63019;51.080;13.642;2024-01-30T02:02:41;2.10;99.90
74488;DHT22;63019;51.080;13.642;2024-01-30T02:03:48;2.10;99.90
74488;DHT22;63019;51.080;13.642;2024-01-30T02:04:51;2.10;99.90
74488;DHT22;63019;51.080;13.642;2024-01-30T02:05:54;2.10;99.90
74488;DHT22;63019;51.080;13.642;2024-01-30T02:06:59;2.10;99.90
74488;DHT22;63019;51.080;13.642;2024-01-30T02:08:01;2.10;99.90
74488;DHT22;63019;51.080;13.642;2024-01-30T02:09:05;2.10;99.90
74488;DHT22;63019;51.080;13.642;2024-01-30T02:10:08;2.10;99.90
74488;DHT22;63019;51.080;13.642;2024-01-30T02:11:12;2.10;99.90
74488;DHT22;63019;51.080;13.642;2024-01-30T02:12:15;2.10;99.90
74488;DHT22;63019;51.080;13.642;2024-01-30T02:13:21;2.00;99.90
74488;DHT22;63019;51.080;13.642;2024-01-30T02:14:23;2.00;99.90
74488;DHT22;63019;51.080;13.642;2024-01-30T02:15:29;2.00;99.90
74488;DHT22;63019;51.080;13.642;2024-01-30T02:16:32;2.00;99.90
74488;DHT22;63019;51.080;13.642;2024-01-30T02:17:34;2.00;99.90
74488;DHT22;63019;51.080;13.642;2024-01-30T02:18:37;2.00;99.90
74488;DHT22;63019;51.080;13.642;2024-01-30T02:19:44;2.00;99.90
74488;DHT22;63019;51.080;13.642;2024-01-30T02:20:46;2.00;99.90
74488;DHT22;63019;51.080;13.642;2024-01-30T02:21:50;2.00;99.90
74488;DHT22;63019;51.080;13.642;2024-01-30T02:22:56;2.00;99.90
74488;DHT22;63019;51.080;13.642;2024-01-30T02:24:01;2.00;99.90
74488;DHT22;63019;51.080;13.642;2024-01-30T02:25:04;2.00;99.90
74488;DHT22;63019;51.080;13.642;2024-01-30T02:26:07;2.00;99.90
74488;DHT22;63019;51.080;13.642;2024-01-30T02:27:09;2.00;99.90
74488;DHT22;63019;51.080;13.642;2024-01-30T02:28:12;2.00;99.90
74488;DHT22;63019;51.080;13.642;2024-01-30T02:29:16;2.00;99.90
74488;DHT22;63019;51.080;13.642;2024-01-30T02:30:18;2.00;99.90
74488;DHT22;63019;51.080;13.642;2024-01-30T02:31:20;2.00;99.90
74488;DHT22;63019;51.080;13.642;2024-01-30T02:32:24;2.00;99.90
74488;DHT22;63019;51.080;13.642;2024-01-30T02:33:26;2.00;99.90
74488;DHT22;63019;51.080;13.642;2024-01-30T02:34:28;2.00;99.90
74488;DHT22;63019;51.080;13.642;2024-01-30T02:35:31;2.00;99.90
74488;DHT22;63019;51.080;13.642;2024-01-30T02:36:34;2.00;99.90
74488;DHT22;63019;51.080;13.642;2024-01-30T02:37:36;2.00;99.90
74488;DHT22;63019;51.080;13.642;2024-01-30T02:38:38;2.00;99.90
74488;DHT22;63019;51.080;13.642;2024-01-30T02:39:41;2.00;99.90
74488;DHT22;63019;51.080;13.642;2024-01-30T02:40:43;2.00;99.90
74488;DHT22;63019;51.080;13.642;2024-01-30T02:41:45;2.00;99.90
74488;DHT22;63019;51.080;13.642;2024-01-30T02:42:47;2.00;99.90
74488;DHT22;63019;51.080;13.642;2024-01-30T02:43:50;2.00;99.90
74488;DHT22;63019;51.080;13.642;2024-01-30T02:44:52;2.00;99.90
74488;DHT22;63019;51.080;13.642;2024-01-30T02:45:55;2.00;99.90
74488;DHT22;63019;51.080;13.642;2024-01-30T02:46:57;2.00;99.90
74488;DHT22;63019;51.080;13.642;2024-01-30T02:47:59;2.00;99.90
74488;DHT22;63019;51.080;13.642;2024-01-30T02:49:02;2.00;99.90
74488;DHT22;63019;51.080;13.642;2024-01-30T02:50:05;2.00;99.90
74488;DHT22;63019;51.080;13.642;2024-01-30T02:51:07;1.90;99.90
74488;DHT22;63019;51.080;13.642;2024-01-30T02:52:10;1.90;99.90
74488;DHT22;63019;51.080;13.642;2024-01-30T02:53:12;2.00;99.90
74488;DHT22;63019;51.080;13.642;2024-01-30T02:54:14;1.90;99.90
74488;DHT22;63019;51.080;13.642;2024-01-30T02:55:17;1.90;99.90
74488;DHT22;63019;51.080;13.642;2024-01-30T02:56:20;1.90;99.90
74488;DHT22;63019;51.080;13.642;2024-01-30T02:57:24;2.00;99.90
74488;DHT22;63019;51.080;13.642;2024-01-30T02:58:26;2.00;99.90
74488;DHT22;63019;51.080;13.642;2024-01-30T02:59:31;1.90;99.90
74488;DHT22;63019;51.080;13.642;2024-01-30T03:00:37;1.90;99.90
74488;DHT22;63019;51.080;13.642;2024-01-30T03:01:44;2.00;99.90
74488;DHT22;63019;51.080;13.642;2024-01-30T03:02:46;2.00;99.90
74488;DHT22;63019;51.080;13.642;2024-01-30T03:03:48;2.00;99.90
74488;DHT22;63019;51.080;13.642;2024-01-30T03:04:51;2.00;99.90
74488;DHT22;63019;51.080;13.642;2024-01-30T03:05:54;2.00;99.90
74488;DHT22;63019;51.080;13.642;2024-01-30T03:06:56;2.00;99.90
74488;DHT22;63019;51.080;13.642;2024-01-30T03:07:59;2.00;99.90
74488;DHT22;63019;51.080;13.642;2024-01-30T03:09:03;2.00;99.90
74488;DHT22;63019;51.080;13.642;2024-01-30T03:10:07;1.90;99.90
74488;DHT22;63019;51.080;13.642;2024-01-30T03:11:09;1.90;99.90
74488;DHT22;63019;51.080;13.642;2024-01-30T03:12:12;1.90;99.90
74488;DHT22;63019;51.080;13.642;2024-01-30T03:13:14;1.90;99.90
74488;DHT22;63019;51.080;13.642;2024-01-30T03:14:16;2.00;99.90
74488;DHT22;63019;51.080;13.642;2024-01-30T03:15:18;1.90;99.90
74488;DHT22;63019;51.080;13.642;2024-01-30T03:16:21;1.90;99.90
74488;DHT22;63019;51.080;13.642;2024-01-30T03:17:23;1.90;99.90
74488;DHT22;63019;51.080;13.642;2024-01-30T03:18:26;1.90;99.90
74488;DHT22;63019;51.080;13.642;2024-01-30T03:19:28;1.90;99.90
74488;DHT22;63019;51.080;13.642;2024-01-30T03:20:31;1.90;99.90
74488;DHT22;63019;51.080;13.642;2024-01-30T03:21:34;1.90;99.90
74488;DHT22;63019;51.080;13.642;2024-01-30T03:22:37;1.90;99.90
74488;DHT22;63019;51.080;13.642;2024-01-30T03:23:39;1.90;99.90
74488;DHT22;63019;51.080;13.642;2024-01-30T03:24:42;1.80;99.90
74488;DHT22;63019;51.080;13.642;2024-01-30T03:25:44;1.80;99.90
74488;DHT22;63019;51.080;13.642;2024-01-30T03:26:46;1.90;99.90
74488;DHT22;63019;51.080;13.642;2024-01-30T03:27:49;1.80;99.90
74488;DHT22;63019;51.080;13.642;2024-01-30T03:28:51;1.90;99.90
74488;DHT22;63019;51.080;13.642;2024-01-30T03:29:53;1.80;99.90
74488;DHT22;63019;51.080;13.642;2024-01-30T03:30:56;1.80;99.90
74488;DHT22;63019;51.080;13.642;2024-01-30T03:31:58;1.90;99.90
74488;DHT22;63019;51.080;13.642;2024-01-30T03:33:01;1.90;99.90
74488;DHT22;63019;51.080;13.642;2024-01-30T03:34:03;1.90;99.90
74488;DHT22;63019;51.080;13.642;2024-01-30T03:35:06;1.80;99.90
74488;DHT22;63019;51.080;13.642;2024-01-30T03:36:09;1.80;99.90
74488;DHT22;63019;51.080;13.642;2024-01-30T03:37:11;1.80;99.90
74488;DHT22;63019;51.080;13.642;2024-01-30T03:38:14;1.80;99.90
74488;DHT22;63019;51.080;13.642;2024-01-30T03:39:16;1.80;99.90
74488;DHT22;63019;51.080;13.642;2024-01-30T03:40:19;1.80;99.90
74488;DHT22;63019;51.080;13.642;2024-01-30T03:41:22;1.80;99.90
74488;DHT22;63019;51.080;13.642;2024-01-30T03:42:25;1.80;99.90
74488;DHT22;63019;51.080;13.642;2024-01-30T03:43:27;1.80;99.90
74488;DHT22;63019;51.080;13.642;2024-01-30T03:44:29;1.80;99.90
74488;DHT22;63019;51.080;13.642;2024-01-30T03:45:33;1.80;99.90
74488;DHT22;63019;51.080;13.642;2024-01-30T03:46:36;1.80;99.90
74488;DHT22;63019;51.080;13.642;2024-01-30T03:47:38;1.80;99.90
74488;DHT22;63019;51.080;13.642;2024-01-30T03:48:40;1.80;99.90
74488;DHT22;63019;51.080;13.642;2024-01-30T03:49:43;1.80;99.90
74488;DHT22;63019;51.080;13.642;2024-01-30T03:50:45;1.80;99.90
74488;DHT22;63019;51.080;13.642;2024-01-30T03:51:47;1.80;99.90
74488;DHT22;63019;51.080;13.642;2024-01-30T03:52:50;1.80;99.90
74488;DHT22;63019;51.080;13.642;2024-01-30T03:53:52;1.80;99.90
74488;DHT22;63019;51.080;13.642;2024-01-30T03:54:55;1.80;99.90
74488;DHT22;63019;51.080;13.642;2024-01-30T03:55:57;1.80;99.90
74488;DHT22;63019;51.080;13.642;2024-01-30T03:56:59;1.80;99.90
74488;DHT22;63019;51.080;13.642;2024-01-30T03:58:02;1.80;99.90
74488;DHT22;63019;51.080;13.642;2024-01-30T03:59:04;1.80;99.90
74488;DHT22;63019;51.080;13.642;2024-01-30T04:00:07;1.80;99.90
74488;DHT22;63019;51.080;13.642;2024-01-30T04:01:14;1.80;99.90
74488;DHT22;63019;51.080;13.642;2024-01-30T04:02:17;1.70;99.90
74488;DHT22;63019;51.080;13.642;2024-01-30T04:03:20;1.70;99.90
74488;DHT22;63019;51.080;13.642;2024-01-30T04:04:22;1.70;99.90
74488;DHT22;63019;51.080;13.642;2024-01-30T04:05:25;1.70;99.90
74488;DHT22;63019;51.080;13.642;2024-01-30T04:06:27;1.70;99.90
74488;DHT22;63019;51.080;13.642;2024-01-30T04:07:29;1.70;99.90
74488;DHT22;63019;51.080;13.642;2024-01-30T04:08:34;1.70;99.90
74488;DHT22;63019;51.080;13.642;2024-01-30T04:09:36;1.70;99.90
74488;DHT22;63019;51.080;13.642;2024-01-30T04:10:40;1.70;99.90
74488;DHT22;63019;51.080;13.642;2024-01-30T04:11:42;1.80;99.90
74488;DHT22;63019;51.080;13.642;2024-01-30T04:12:44;1.70;99.90
74488;DHT22;63019;51.080;13.642;2024-01-30T04:13:47;1.70;99.90
74488;DHT22;63019;51.080;13.642;2024-01-30T04:14:50;1.70;99.90
74488;DHT22;63019;51.080;13.642;2024-01-30T04:15:52;1.70;99.90
74488;DHT22;63019;51.080;13.642;2024-01-30T04:16:56;1.70;99.90
74488;DHT22;63019;51.080;13.642;2024-01-30T04:17:58;1.70;99.90
74488;DHT22;63019;51.080;13.642;2024-01-30T04:19:01;1.70;99.90
74488;DHT22;63019;51.080;13.642;2024-01-30T04:20:04;1.70;99.90
74488;DHT22;63019;51.080;13.642;2024-01-30T04:21:07;1.70;99.90
74488;DHT22;63019;51.080;13.642;2024-01-30T04:22:11;1.70;99.90
74488;DHT22;63019;51.080;13.642;2024-01-30T04:23:13;1.70;99.90
74488;DHT22;63019;51.080;13.642;2024-01-30T04:24:15;1.70;99.90
74488;DHT22;63019;51.080;13.642;2024-01-30T04:25:20;1.70;99.90
74488;DHT22;63019;51.080;13.642;2024-01-30T04:26:23;1.70;99.90
74488;DHT22;63019;51.080;13.642;2024-01-30T04:27:29;1.70;99.90
74488;DHT22;63019;51.080;13.642;2024-01-30T04:28:32;1.70;99.90
74488;DHT22;63019;51.080;13.642;2024-01-30T04:29:34;1.70;99.90
74488;DHT22;63019;51.080;13.642;2024-01-30T04:30:37;1.70;99.90
74488;DHT22;63019;51.080;13.642;2024-01-30T04:31:41;1.70;99.90
74488;DHT22;63019;51.080;13.642;2024-01-30T04:32:44;1.70;99.90
74488;DHT22;63019;51.080;13.642;2024-01-30T04:33:46;1.70;99.90
74488;DHT22;63019;51.080;13.642;2024-01-30T04:34:49;1.70;99.90
74488;DHT22;63019;51.080;13.642;2024-01-30T04:35:51;1.70;99.90
74488;DHT22;63019;51.080;13.642;2024-01-30T04:36:54;1.60;99.90
74488;DHT22;63019;51.080;13.642;2024-01-30T04:37:58;1.60;99.90
74488;DHT22;63019;51.080;13.642;2024-01-30T04:39:01;1.60;99.90
74488;DHT22;63019;51.080;13.642;2024-01-30T04:40:03;1.60;99.90
74488;DHT22;63019;51.080;13.642;2024-01-30T04:41:06;1.60;99.90
74488;DHT22;63019;51.080;13.642;2024-01-30T04:42:09;1.60;99.90
74488;DHT22;63019;51.080;13.642;2024-01-30T04:43:11;1.60;99.90
74488;DHT22;63019;51.080;13.642;2024-01-30T04:44:14;1.60;99.90
74488;DHT22;63019;51.080;13.642;2024-01-30T04:45:16;1.60;99.90
74488;DHT22;63019;51.080;13.642;2024-01-30T04:46:18;1.60;99.90
74488;DHT22;63019;51.080;13.642;2024-01-30T04:47:21;1.60;99.90
74488;DHT22;63019;51.080;13.642;2024-01-30T04:48:23;1.60;99.90
74488;DHT22;63019;51.080;13.642;2024-01-30T04:49:25;1.60;99.90
74488;DHT22;63019;51.080;13.642;2024-01-30T04:50:28;1.60;99.90
74488;DHT22;63019;51.080;13.642;2024-01-30T04:51:30;1.60;99.90
74488;DHT22;63019;51.080;13.642;2024-01-30T04:52:34;1.60;99.90
74488;DHT22;63019;51.080;13.642;2024-01-30T04:53:36;1.60;99.90
74488;DHT22;63019;51.080;13.642;2024-01-30T04:54:38;1.60;99.90
74488;DHT22;63019;51.080;13.642;2024-01-30T04:55:41;1.60;99.90
74488;DHT22;63019;51.080;13.642;2024-01-30T04:56:43;1.60;99.90
74488;DHT22;63019;51.080;13.642;2024-01-30T04:57:49;1.60;99.90
74488;DHT22;63019;51.080;13.642;2024-01-30T04:58:52;1.60;99.90
74488;DHT22;63019;51.080;13.642;2024-01-30T04:59:55;1.60;99.90
74488;DHT22;63019;51.080;13.642;2024-01-30T05:00:57;1.60;99.90
74488;DHT22;63019;51.080;13.642;2024-01-30T05:02:00;1.60;99.90
74488;DHT22;63019;51.080;13.642;2024-01-30T05:03:03;1.60;99.90
74488;DHT22;63019;51.080;13.642;2024-01-30T05:04:09;1.60;99.90
74488;DHT22;63019;51.080;13.642;2024-01-30T05:05:17;1.50;99.90
74488;DHT22;63019;51.080;13.642;2024-01-30T05:06:26;1.60;99.90
74488;DHT22;63019;51.080;13.642;2024-01-30T05:07:29;1.60;99.90
74488;DHT22;63019;51.080;13.642;2024-01-30T05:08:32;1.50;99.90
74488;DHT22;63019;51.080;13.642;2024-01-30T05:09:35;1.60;99.90
74488;DHT22;63019;51.080;13.642;2024-01-30T05:10:37;1.60;99.90
74488;DHT22;63019;51.080;13.642;2024-01-30T05:11:40;1.50;99.90
74488;DHT22;63019;51.080;13.642;2024-01-30T05:12:43;1.50;99.90
74488;DHT22;63019;51.080;13.642;2024-01-30T05:13:45;1.50;99.90
74488;DHT22;63019;51.080;13.642;2024-01-30T05:14:47;1.50;99.90
74488;DHT22;63019;51.080;13.642;2024-01-30T05:15:50;1.50;99.90
74488;DHT22;63019;51.080;13.642;2024-01-30T05:16:52;1.50;99.90
74488;DHT22;63019;51.080;13.642;2024-01-30T05:17:54;1.50;99.90
74488;DHT22;63019;51.080;13.642;2024-01-30T05:18:57;1.50;99.90
74488;DHT22;63019;51.080;13.642;2024-01-30T05:20:04;1.50;99.90
74488;DHT22;63019;51.080;13.642;2024-01-30T05:21:07;1.50;99.90
74488;DHT22;63019;51.080;13.642;2024-01-30T05:22:09;1.50;99.90
74488;DHT22;63019;51.080;13.642;2024-01-30T05:23:12;1.50;99.90
74488;DHT22;63019;51.080;13.642;2024-01-30T05:24:14;1.50;99.90
74488;DHT22;63019;51.080;13.642;2024-01-30T05:25:16;1.50;99.90
74488;DHT22;63019;51.080;13.642;2024-01-30T05:26:18;1.50;99.90
74488;DHT22;63019;51.080;13.642;2024-01-30T05:27:21;1.50;99.90
74488;DHT22;63019;51.080;13.642;2024-01-30T05:28:23;1.50;99.90
74488;DHT22;63019;51.080;13.642;2024-01-30T05:29:26;1.50;99.90
74488;DHT22;63019;51.080;13.642;2024-01-30T05:30:29;1.50;99.90
74488;DHT22;63019;51.080;13.642;2024-01-30T05:31:31;1.50;99.90
74488;DHT22;63019;51.080;13.642;2024-01-30T05:32:34;1.50;99.90
74488;DHT22;63019;51.080;13.642;2024-01-30T05:33:36;1.50;99.90
74488;DHT22;63019;51.080;13.642;2024-01-30T05:34:39;1.50;99.90
74488;DHT22;63019;51.080;13.642;2024-01-30T05:35:42;1.50;99.90
74488;DHT22;63019;51.080;13.642;2024-01-30T05:36:44;1.50;99.90
74488;DHT22;63019;51.080;13.642;2024-01-30T05:37:47;1.50;99.90
74488;DHT22;63019;51.080;13.642;2024-01-30T05:38:50;1.50;99.90
74488;DHT22;63019;51.080;13.642;2024-01-30T05:39:53;1.50;99.90
74488;DHT22;63019;51.080;13.642;2024-01-30T05:40:55;1.50;99.90
74488;DHT22;63019;51.080;13.642;2024-01-30T05:42:00;1.50;99.90
74488;DHT22;63019;51.080;13.642;2024-01-30T05:43:06;1.50;99.90
74488;DHT22;63019;51.080;13.642;2024-01-30T05:44:09;1.50;99.90
74488;DHT22;63019;51.080;13.642;2024-01-30T05:45:12;1.50;99.90
74488;DHT22;63019;51.080;13.642;2024-01-30T05:46:14;1.50;99.90
74488;DHT22;63019;51.080;13.642;2024-01-30T05:47:16;1.50;99.90
74488;DHT22;63019;51.080;13.642;2024-01-30T05:48:19;1.50;99.90
74488;DHT22;63019;51.080;13.642;2024-01-30T05:49:21;1.50;99.90
74488;DHT22;63019;51.080;13.642;2024-01-30T05:50:24;1.50;99.90
74488;DHT22;63019;51.080;13.642;2024-01-30T05:51:27;1.60;99.90
74488;DHT22;63019;51.080;13.642;2024-01-30T05:52:31;1.50;99.90
74488;DHT22;63019;51.080;13.642;2024-01-30T05:53:34;1.50;99.90
74488;DHT22;63019;51.080;13.642;2024-01-30T05:54:36;1.50;99.90
74488;DHT22;63019;51.080;13.642;2024-01-30T05:55:39;1.50;99.90
74488;DHT22;63019;51.080;13.642;2024-01-30T05:56:41;1.50;99.90
74488;DHT22;63019;51.080;13.642;2024-01-30T05:57:44;1.50;99.90
74488;DHT22;63019;51.080;13.642;2024-01-30T05:58:46;1.50;99.90
74488;DHT22;63019;51.080;13.642;2024-01-30T05:59:49;1.50;99.90
74488;DHT22;63019;51.080;13.642;2024-01-30T06:00:53;1.50;99.90
74488;DHT22;63019;51.080;13.642;2024-01-30T06:01:56;1.50;99.90
74488;DHT22;63019;51.080;13.642;2024-01-30T06:02:58;1.50;99.90
74488;DHT22;63019;51.080;13.642;2024-01-30T06:04:01;1.50;99.90
74488;DHT22;63019;51.080;13.642;2024-01-30T06:05:03;1.50;99.90
74488;DHT22;63019;51.080;13.642;2024-01-30T06:06:06;1.50;99.90
74488;DHT22;63019;51.080;13.642;2024-01-30T06:07:08;1.50;99.90
74488;DHT22;63019;51.080;13.642;2024-01-30T06:08:11;1.50;99.90
74488;DHT22;63019;51.080;13.642;2024-01-30T06:09:13;1.50;99.90
74488;DHT22;63019;51.080;13.642;2024-01-30T06:10:16;1.50;99.90
74488;DHT22;63019;51.080;13.642;2024-01-30T06:11:18;1.50;99.90
74488;DHT22;63019;51.080;13.642;2024-01-30T06:12:21;1.50;99.90
74488;DHT22;63019;51.080;13.642;2024-01-30T06:13:23;1.50;99.90
74488;DHT22;63019;51.080;13.642;2024-01-30T06:14:26;1.50;99.90
74488;DHT22;63019;51.080;13.642;2024-01-30T06:15:28;1.50;99.90
74488;DHT22;63019;51.080;13.642;2024-01-30T06:16:31;1.50;99.90
74488;DHT22;63019;51.080;13.642;2024-01-30T06:17:35;1.50;99.90
74488;DHT22;63019;51.080;13.642;2024-01-30T06:18:37;1.50;99.90
74488;DHT22;63019;51.080;13.642;2024-01-30T06:19:39;1.50;99.90
74488;DHT22;63019;51.080;13.642;2024-01-30T06:20:42;1.50;99.90
74488;DHT22;63019;51.080;13.642;2024-01-30T06:21:45;1.50;99.90
74488;DHT22;63019;51.080;13.642;2024-01-30T06:22:47;1.50;99.90
74488;DHT22;63019;51.080;13.642;2024-01-30T06:23:49;1.50;99.90
74488;DHT22;63019;51.080;13.642;2024-01-30T06:24:52;1.50;99.90
74488;DHT22;63019;51.080;13.642;2024-01-30T06:25:54;1.50;99.90
74488;DHT22;63019;51.080;13.642;2024-01-30T06:26:57;1.50;99.90
74488;DHT22;63019;51.080;13.642;2024-01-30T06:28:00;1.50;99.90
74488;DHT22;63019;51.080;13.642;2024-01-30T06:29:03;1.50;99.90
74488;DHT22;63019;51.080;13.642;2024-01-30T06:30:06;1.50;99.90
74488;DHT22;63019;51.080;13.642;2024-01-30T06:31:08;1.50;99.90
74488;DHT22;63019;51.080;13.642;2024-01-30T06:32:10;1.50;99.90
74488;DHT22;63019;51.080;13.642;2024-01-30T06:33:14;1.50;99.90
74488;DHT22;63019;51.080;13.642;2024-01-30T06:34:17;1.50;99.90
74488;DHT22;63019;51.080;13.642;2024-01-30T06:35:21;1.50;99.90
74488;DHT22;63019;51.080;13.642;2024-01-30T06:36:24;1.50;99.90
74488;DHT22;63019;51.080;13.642;2024-01-30T06:37:26;1.50;99.90